createdAt,value
2017-02-14T00:00:03.197Z,25.56
2017-02-14T00:00:22.919Z,25.57
2017-02-14T00:00:42.644Z,25.68
2017-02-14T00:01:02.399Z,25.74
2017-02-14T00:01:22.144Z,25.68
2017-02-14T00:01:41.855Z,25.67
2017-02-14T00:02:01.000Z,25.77
2017-02-14T00:02:20.192Z,25.74
2017-02-14T00:02:39.931Z,25.74
2017-02-14T00:02:59.690Z,25.68
2017-02-14T00:03:19.465Z,25.71
2017-02-14T00:03:38.664Z,25.72
2017-02-14T00:03:57.829Z,25.7
2017-02-14T00:04:17.622Z,25.68
2017-02-14T00:04:37.379Z,25.71
2017-02-14T00:04:57.154Z,25.72
2017-02-14T00:05:16.291Z,25.7
2017-02-14T00:05:36.096Z,25.72
2017-02-14T00:05:55.902Z,25.59
2017-02-14T00:06:15.717Z,25.67
2017-02-14T00:06:35.526Z,25.75
2017-02-14T00:06:55.269Z,25.68
2017-02-14T00:07:15.023Z,25.64
2017-02-14T00:07:34.839Z,25.56
2017-02-14T00:07:54.622Z,25.67
2017-02-14T00:08:14.419Z,25.67
2017-02-14T00:08:34.134Z,25.65
2017-02-14T00:08:53.883Z,25.56
2017-02-14T00:09:13.647Z,25.57
2017-02-14T00:09:32.828Z,25.56
2017-02-14T00:09:52.005Z,25.57
2017-02-14T00:10:11.760Z,25.56
2017-02-14T00:10:31.515Z,25.49
2017-02-14T00:10:51.229Z,25.56
2017-02-14T00:11:10.991Z,25.56
2017-02-14T00:11:29.560Z,25.59
2017-02-14T00:11:49.353Z,25.56
2017-02-14T00:12:08.520Z,25.6
2017-02-14T00:12:28.281Z,25.55
2017-02-14T00:12:48.026Z,25.62
2017-02-14T00:13:07.741Z,25.57
2017-02-14T00:13:26.910Z,25.68
2017-02-14T00:13:46.705Z,25.53
2017-02-14T00:14:06.446Z,25.64
2017-02-14T00:14:25.011Z,25.7
2017-02-14T00:14:44.794Z,25.64
2017-02-14T00:15:03.962Z,25.68
2017-02-14T00:15:23.117Z,25.68
2017-02-14T00:15:42.907Z,25.65
2017-02-14T00:16:02.637Z,25.53
2017-02-14T00:16:22.403Z,25.71
2017-02-14T00:16:42.173Z,25.68
2017-02-14T00:17:01.888Z,25.65
2017-02-14T00:17:21.624Z,25.57
2017-02-14T00:17:41.376Z,25.57
2017-02-14T00:18:01.102Z,25.65
2017-02-14T00:18:20.243Z,25.74
2017-02-14T00:18:40.017Z,25.57
2017-02-14T00:18:59.789Z,25.57
2017-02-14T00:19:19.556Z,25.62
2017-02-14T00:19:39.297Z,25.56
2017-02-14T00:19:59.069Z,25.57
2017-02-14T00:20:18.244Z,25.59
2017-02-14T00:20:38.004Z,25.64
2017-02-14T00:20:57.753Z,25.64
2017-02-14T00:21:16.915Z,25.6
2017-02-14T00:21:36.257Z,25.57
2017-02-14T00:21:56.012Z,25.59
2017-02-14T00:22:15.149Z,25.57
2017-02-14T00:22:34.910Z,25.55
2017-02-14T00:22:54.690Z,25.52
2017-02-14T00:23:14.428Z,25.59
2017-02-14T00:23:34.170Z,25.56
2017-02-14T00:23:53.896Z,25.55
2017-02-14T00:24:13.630Z,25.53
2017-02-14T00:24:33.390Z,25.56
2017-02-14T00:24:53.147Z,25.47
2017-02-14T00:25:12.883Z,25.41
2017-02-14T00:25:32.010Z,25.4
2017-02-14T00:25:51.740Z,25.38
2017-02-14T00:26:11.500Z,25.45
2017-02-14T00:26:30.683Z,25.35
2017-02-14T00:26:49.886Z,25.41
2017-02-14T00:27:09.032Z,25.4
2017-02-14T00:27:28.827Z,25.46
2017-02-14T00:27:48.586Z,25.45
2017-02-14T00:28:08.349Z,25.45
2017-02-14T00:28:28.147Z,25.53
2017-02-14T00:28:47.958Z,25.49
2017-02-14T00:29:07.731Z,25.49
2017-02-14T00:29:26.969Z,25.52
2017-02-14T00:29:46.753Z,25.5
2017-02-14T00:30:06.511Z,25.6
2017-02-14T00:30:25.065Z,25.53
2017-02-14T00:30:44.828Z,25.59
2017-02-14T00:31:04.646Z,25.57
2017-02-14T00:31:24.368Z,25.56
2017-02-14T00:31:44.172Z,25.47
2017-02-14T00:32:03.923Z,25.47
2017-02-14T00:32:23.661Z,25.55
2017-02-14T00:32:43.481Z,25.57
2017-02-14T00:33:03.265Z,25.59
2017-02-14T00:33:23.004Z,25.56
2017-02-14T00:33:42.750Z,25.55
2017-02-14T00:34:02.487Z,25.5
2017-02-14T00:34:22.300Z,25.59
2017-02-14T00:34:42.108Z,25.59
2017-02-14T00:35:01.859Z,25.56
2017-02-14T00:35:21.616Z,25.64
2017-02-14T00:35:41.369Z,25.6
2017-02-14T00:36:01.144Z,25.56
2017-02-14T00:36:19.723Z,25.57
2017-02-14T00:36:39.435Z,25.53
2017-02-14T00:36:59.174Z,25.59
2017-02-14T00:37:18.986Z,25.59
2017-02-14T00:37:38.731Z,25.55
2017-02-14T00:37:58.493Z,25.56
2017-02-14T00:38:17.080Z,25.65
2017-02-14T00:38:36.868Z,25.7
2017-02-14T00:38:56.694Z,25.55
2017-02-14T00:39:16.449Z,25.57
2017-02-14T00:39:36.200Z,25.56
2017-02-14T00:39:55.976Z,25.57
2017-02-14T00:40:14.518Z,25.68
2017-02-14T00:40:34.290Z,25.65
2017-02-14T00:40:54.057Z,25.71
2017-02-14T00:41:13.779Z,25.59
2017-02-14T00:41:33.647Z,25.67
2017-02-14T00:41:53.428Z,25.67
2017-02-14T00:42:13.163Z,25.65
2017-02-14T00:42:32.916Z,25.59
2017-02-14T00:42:52.671Z,25.57
2017-02-14T00:43:12.452Z,25.62
2017-02-14T00:43:32.235Z,25.53
2017-02-14T00:43:51.959Z,25.57
2017-02-14T00:44:11.730Z,25.65
2017-02-14T00:44:31.474Z,25.57
2017-02-14T00:44:51.196Z,25.56
2017-02-14T00:45:10.438Z,25.7
2017-02-14T00:45:29.580Z,25.59
2017-02-14T00:45:49.406Z,25.64
2017-02-14T00:46:09.119Z,25.7
2017-02-14T00:46:28.931Z,25.65
2017-02-14T00:46:48.701Z,25.68
2017-02-14T00:47:08.510Z,25.65
2017-02-14T00:47:28.316Z,25.64
2017-02-14T00:47:48.062Z,25.71
2017-02-14T00:48:07.786Z,25.59
2017-02-14T00:48:26.913Z,25.59
2017-02-14T00:48:46.677Z,25.55
2017-02-14T00:49:06.420Z,25.59
2017-02-14T00:49:26.179Z,25.62
2017-02-14T00:49:45.911Z,25.57
2017-02-14T00:50:05.721Z,25.55
2017-02-14T00:50:25.458Z,25.53
2017-02-14T00:50:45.230Z,25.55
2017-02-14T00:51:04.975Z,25.53
2017-02-14T00:51:23.562Z,25.59
2017-02-14T00:51:43.324Z,25.52
2017-02-14T00:52:03.092Z,25.57
2017-02-14T00:52:22.909Z,25.52
2017-02-14T00:52:42.713Z,25.53
2017-02-14T00:53:02.484Z,25.59
2017-02-14T00:53:22.221Z,25.55
2017-02-14T00:53:41.977Z,25.53
2017-02-14T00:54:01.720Z,25.6
2017-02-14T00:54:20.294Z,25.57
2017-02-14T00:54:40.085Z,25.59
2017-02-14T00:54:59.888Z,25.5
2017-02-14T00:55:19.625Z,25.49
2017-02-14T00:55:38.750Z,25.41
2017-02-14T00:55:58.522Z,25.37
2017-02-14T00:56:18.286Z,25.35
2017-02-14T00:56:38.024Z,25.25
2017-02-14T00:56:57.804Z,25.31
2017-02-14T00:57:17.589Z,25.41
2017-02-14T00:57:36.740Z,25.31
2017-02-14T00:57:55.896Z,25.34
2017-02-14T00:58:15.609Z,25.35
2017-02-14T00:58:35.345Z,25.31
2017-02-14T00:58:55.095Z,25.28
2017-02-14T00:59:14.243Z,25.32
2017-02-14T00:59:33.391Z,25.37
2017-02-14T00:59:53.119Z,25.4
2017-02-14T01:00:12.894Z,25.31
2017-02-14T01:00:32.058Z,25.41
2017-02-14T01:00:51.800Z,25.47
2017-02-14T01:01:11.554Z,25.5
2017-02-14T01:01:30.706Z,25.5
2017-02-14T01:01:49.863Z,25.53
2017-02-14T01:02:09.661Z,25.53
2017-02-14T01:02:29.427Z,25.52
2017-02-14T01:02:49.171Z,25.53
2017-02-14T01:03:08.946Z,25.52
2017-02-14T01:03:28.671Z,25.55
2017-02-14T01:03:48.385Z,25.6
2017-02-14T01:04:08.172Z,25.53
2017-02-14T01:04:27.335Z,25.56
2017-02-14T01:04:47.093Z,25.52
2017-02-14T01:05:06.880Z,25.53
2017-02-14T01:05:26.652Z,25.53
2017-02-14T01:05:46.393Z,25.6
2017-02-14T01:06:06.112Z,25.5
2017-02-14T01:06:25.880Z,25.53
2017-02-14T01:06:45.594Z,25.59
2017-02-14T01:07:05.320Z,25.6
2017-02-14T01:07:25.064Z,25.6
2017-02-14T01:07:44.794Z,25.57
2017-02-14T01:08:04.583Z,25.62
2017-02-14T01:08:24.314Z,25.52
2017-02-14T01:08:44.059Z,25.56
2017-02-14T01:09:03.835Z,25.52
2017-02-14T01:09:22.992Z,25.57
2017-02-14T01:09:42.727Z,25.56
2017-02-14T01:10:02.486Z,25.52
2017-02-14T01:10:22.241Z,25.55
2017-02-14T01:10:41.983Z,25.56
2017-02-14T01:11:01.709Z,25.57
2017-02-14T01:11:20.896Z,25.52
2017-02-14T01:11:40.642Z,25.52
2017-02-14T01:12:00.395Z,25.49
2017-02-14T01:12:20.177Z,25.46
2017-02-14T01:12:40.006Z,25.53
2017-02-14T01:12:59.796Z,25.45
2017-02-14T01:13:19.547Z,25.55
2017-02-14T01:13:39.305Z,25.42
2017-02-14T01:13:59.092Z,25.38
2017-02-14T01:14:18.842Z,25.4
2017-02-14T01:14:38.556Z,25.46
2017-02-14T01:14:58.311Z,25.41
2017-02-14T01:15:17.472Z,25.49
2017-02-14T01:15:36.651Z,25.45
2017-02-14T01:15:56.432Z,25.45
2017-02-14T01:16:16.237Z,25.45
2017-02-14T01:16:35.963Z,25.5
2017-02-14T01:16:55.743Z,25.46
2017-02-14T01:17:15.487Z,25.45
2017-02-14T01:17:35.231Z,25.46
2017-02-14T01:17:54.965Z,25.5
2017-02-14T01:18:14.675Z,25.52
2017-02-14T01:18:33.882Z,25.55
2017-02-14T01:18:53.634Z,25.5
2017-02-14T01:19:13.429Z,25.57
2017-02-14T01:19:31.976Z,25.53
2017-02-14T01:19:51.740Z,25.5
2017-02-14T01:20:11.473Z,25.59
2017-02-14T01:20:30.603Z,25.62
2017-02-14T01:20:49.759Z,25.52
2017-02-14T01:21:09.503Z,25.55
2017-02-14T01:21:29.512Z,25.52
2017-02-14T01:21:49.266Z,25.49
2017-02-14T01:22:08.451Z,25.46
2017-02-14T01:22:28.203Z,25.55
2017-02-14T01:22:47.386Z,25.49
2017-02-14T01:23:07.163Z,25.53
2017-02-14T01:23:26.918Z,25.55
2017-02-14T01:23:46.701Z,25.6
2017-02-14T01:24:06.427Z,25.59
2017-02-14T01:24:26.215Z,25.57
2017-02-14T01:24:45.927Z,25.56
2017-02-14T01:25:05.900Z,25.56
2017-02-14T01:25:25.640Z,25.53
2017-02-14T01:25:45.380Z,25.55
2017-02-14T01:26:05.090Z,25.53
2017-02-14T01:26:24.846Z,25.57
2017-02-14T01:26:44.013Z,25.6
2017-02-14T01:27:03.757Z,25.65
2017-02-14T01:27:22.349Z,25.67
2017-02-14T01:27:42.106Z,25.57
2017-02-14T01:28:01.887Z,25.67
2017-02-14T01:28:21.029Z,25.71
2017-02-14T01:28:40.767Z,25.55
2017-02-14T01:28:59.926Z,25.65
2017-02-14T01:29:19.726Z,25.55
2017-02-14T01:29:39.478Z,25.67
2017-02-14T01:29:59.172Z,25.55
2017-02-14T01:30:18.326Z,25.67
2017-02-14T01:30:38.034Z,25.57
2017-02-14T01:30:57.202Z,25.64
2017-02-14T01:31:17.005Z,25.57
2017-02-14T01:31:36.754Z,25.71
2017-02-14T01:31:56.483Z,25.7
2017-02-14T01:32:15.652Z,25.6
2017-02-14T01:32:35.365Z,25.6
2017-02-14T01:32:55.122Z,25.68
2017-02-14T01:33:14.253Z,25.55
2017-02-14T01:33:34.052Z,25.56
2017-02-14T01:33:53.809Z,25.57
2017-02-14T01:34:13.580Z,25.55
2017-02-14T01:34:32.699Z,25.56
2017-02-14T01:34:52.457Z,25.56
2017-02-14T01:35:12.201Z,25.55
2017-02-14T01:35:31.311Z,25.53
2017-02-14T01:35:51.074Z,25.52
2017-02-14T01:36:10.235Z,25.57
2017-02-14T01:36:30.060Z,25.47
2017-02-14T01:36:49.792Z,25.53
2017-02-14T01:37:08.949Z,25.49
2017-02-14T01:37:28.082Z,25.47
2017-02-14T01:37:47.841Z,25.49
2017-02-14T01:38:07.000Z,25.53
2017-02-14T01:38:26.734Z,25.6
2017-02-14T01:38:46.497Z,25.49
2017-02-14T01:39:06.239Z,25.53
2017-02-14T01:39:25.419Z,25.5
2017-02-14T01:39:45.146Z,25.47
2017-02-14T01:40:04.912Z,25.45
2017-02-14T01:40:24.709Z,25.4
2017-02-14T01:40:44.465Z,25.45
2017-02-14T01:41:04.200Z,25.41
2017-02-14T01:41:24.027Z,25.35
2017-02-14T01:41:43.743Z,25.4
2017-02-14T01:42:03.467Z,25.35
2017-02-14T01:42:23.240Z,25.38
2017-02-14T01:42:42.989Z,25.34
2017-02-14T01:43:02.753Z,25.31
2017-02-14T01:43:21.887Z,25.4
2017-02-14T01:43:41.638Z,25.35
2017-02-14T01:44:01.411Z,25.37
2017-02-14T01:44:21.166Z,25.3
2017-02-14T01:44:40.925Z,25.35
2017-02-14T01:45:00.052Z,25.3
2017-02-14T01:45:19.180Z,25.25
2017-02-14T01:45:38.937Z,25.23
2017-02-14T01:45:58.716Z,25.17
2017-02-14T01:46:18.475Z,25.19
2017-02-14T01:46:38.211Z,25.25
2017-02-14T01:46:57.949Z,25.15
2017-02-14T01:47:17.682Z,25.27
2017-02-14T01:47:37.430Z,25.17
2017-02-14T01:47:56.580Z,25.13
2017-02-14T01:48:16.353Z,25.19
2017-02-14T01:48:36.071Z,25.1
2017-02-14T01:48:55.231Z,25.19
2017-02-14T01:49:14.426Z,25.16
2017-02-14T01:49:34.174Z,25.22
2017-02-14T01:49:53.951Z,25.08
2017-02-14T01:50:13.718Z,25.1
2017-02-14T01:50:33.455Z,25.1
2017-02-14T01:50:53.251Z,25.08
2017-02-14T01:51:12.989Z,25.02
2017-02-14T01:51:32.943Z,25
2017-02-14T01:51:52.737Z,24.94
2017-02-14T01:52:12.491Z,25.1
2017-02-14T01:52:32.232Z,25.01
2017-02-14T01:52:51.961Z,24.98
2017-02-14T01:53:11.756Z,24.93
2017-02-14T01:53:31.517Z,25.01
2017-02-14T01:53:50.645Z,24.94
2017-02-14T01:54:10.382Z,24.98
2017-02-14T01:54:30.122Z,24.94
2017-02-14T01:54:49.873Z,24.98
2017-02-14T01:55:09.049Z,25
2017-02-14T01:55:28.784Z,25.01
2017-02-14T01:55:48.526Z,24.88
2017-02-14T01:56:08.286Z,24.93
2017-02-14T01:56:27.640Z,24.94
2017-02-14T01:56:46.839Z,24.86
2017-02-14T01:57:05.993Z,24.98
2017-02-14T01:57:25.143Z,24.88
2017-02-14T01:57:44.887Z,24.93
2017-02-14T01:58:04.628Z,24.94
2017-02-14T01:58:23.764Z,24.88
2017-02-14T01:58:43.513Z,24.88
2017-02-14T01:59:03.249Z,24.83
2017-02-14T01:59:22.963Z,24.85
2017-02-14T01:59:42.713Z,24.93
2017-02-14T02:00:36.115Z,24.94
2017-02-14T02:00:55.873Z,24.86
2017-02-14T02:01:15.628Z,24.9
2017-02-14T02:01:35.435Z,24.82
2017-02-14T02:01:55.188Z,24.88
2017-02-14T02:02:14.941Z,24.85
2017-02-14T02:02:34.679Z,24.79
2017-02-14T02:02:54.465Z,24.82
2017-02-14T02:03:14.232Z,24.78
2017-02-14T02:03:33.365Z,24.8
2017-02-14T02:03:53.135Z,24.79
2017-02-14T02:04:12.346Z,24.76
2017-02-14T02:04:32.103Z,24.8
2017-02-14T02:04:51.859Z,24.78
2017-02-14T02:05:11.609Z,24.82
2017-02-14T02:05:31.353Z,24.8
2017-02-14T02:05:51.111Z,24.75
2017-02-14T02:06:10.267Z,24.78
2017-02-14T02:06:30.017Z,24.75
2017-02-14T02:06:49.750Z,24.71
2017-02-14T02:07:08.916Z,24.75
2017-02-14T02:07:28.654Z,24.69
2017-02-14T02:07:47.801Z,24.67
2017-02-14T02:08:07.541Z,24.73
2017-02-14T02:08:27.254Z,24.76
2017-02-14T02:08:47.043Z,24.64
2017-02-14T02:09:06.813Z,24.66
2017-02-14T02:09:26.570Z,24.75
2017-02-14T02:09:46.341Z,24.62
2017-02-14T02:10:06.272Z,24.52
2017-02-14T02:10:25.413Z,24.57
2017-02-14T02:10:45.168Z,24.62
2017-02-14T02:11:04.341Z,24.62
2017-02-14T02:11:23.515Z,24.5
2017-02-14T02:11:43.369Z,24.57
2017-02-14T02:12:03.136Z,24.42
2017-02-14T02:12:22.868Z,24.45
2017-02-14T02:12:42.654Z,24.52
2017-02-14T02:13:02.403Z,24.52
2017-02-14T02:13:22.147Z,24.47
2017-02-14T02:13:41.318Z,24.45
2017-02-14T02:14:01.062Z,24.5
2017-02-14T02:14:20.845Z,24.42
2017-02-14T02:14:40.594Z,24.47
2017-02-14T02:15:00.374Z,24.42
2017-02-14T02:15:18.893Z,24.45
2017-02-14T02:15:38.654Z,24.41
2017-02-14T02:15:58.433Z,24.5
2017-02-14T02:16:18.208Z,24.44
2017-02-14T02:16:37.434Z,24.41
2017-02-14T02:16:57.212Z,24.54
2017-02-14T02:17:16.338Z,24.54
2017-02-14T02:17:36.087Z,24.54
2017-02-14T02:17:55.819Z,24.48
2017-02-14T02:18:14.982Z,24.54
2017-02-14T02:18:34.695Z,24.56
2017-02-14T02:18:54.485Z,24.62
2017-02-14T02:19:14.268Z,24.62
2017-02-14T02:19:34.027Z,24.71
2017-02-14T02:19:53.752Z,24.66
2017-02-14T02:20:13.551Z,24.64
2017-02-14T02:20:33.320Z,24.76
2017-02-14T02:20:53.104Z,24.75
2017-02-14T02:21:12.873Z,24.78
2017-02-14T02:21:32.636Z,24.85
2017-02-14T02:21:52.389Z,24.78
2017-02-14T02:22:12.144Z,24.78
2017-02-14T02:22:31.925Z,24.82
2017-02-14T02:22:51.708Z,24.88
2017-02-14T02:23:10.924Z,24.93
2017-02-14T02:23:30.779Z,24.83
2017-02-14T02:23:50.565Z,24.94
2017-02-14T02:24:10.324Z,24.85
2017-02-14T02:24:30.072Z,24.82
2017-02-14T02:24:49.803Z,24.83
2017-02-14T02:25:08.929Z,24.9
2017-02-14T02:25:28.699Z,24.9
2017-02-14T02:25:48.452Z,24.85
2017-02-14T02:26:08.178Z,24.94
2017-02-14T02:26:27.319Z,24.9
2017-02-14T02:26:47.170Z,24.94
2017-02-14T02:27:06.918Z,25.04
2017-02-14T02:27:26.677Z,24.98
2017-02-14T02:27:46.416Z,24.95
2017-02-14T02:28:06.187Z,24.98
2017-02-14T02:28:25.338Z,25.13
2017-02-14T02:28:45.100Z,25.12
2017-02-14T02:29:04.900Z,25.1
2017-02-14T02:29:24.666Z,25.12
2017-02-14T02:29:44.446Z,25.12
2017-02-14T02:30:04.210Z,25.02
2017-02-14T02:30:23.968Z,25.09
2017-02-14T02:30:43.722Z,25.09
2017-02-14T02:31:03.449Z,25.12
2017-02-14T02:31:23.229Z,25.09
2017-02-14T02:31:43.026Z,25.15
2017-02-14T02:32:02.777Z,25.15
2017-02-14T02:32:22.500Z,25.05
2017-02-14T02:32:42.218Z,25.08
2017-02-14T02:33:01.942Z,25.02
2017-02-14T02:33:20.522Z,24.95
2017-02-14T02:33:40.292Z,24.95
2017-02-14T02:34:00.078Z,25.05
2017-02-14T02:34:19.899Z,25.04
2017-02-14T02:34:39.112Z,25.08
2017-02-14T02:34:58.865Z,25.15
2017-02-14T02:35:18.674Z,25.23
2017-02-14T02:35:37.887Z,25.13
2017-02-14T02:35:57.685Z,25.23
2017-02-14T02:36:16.303Z,25.13
2017-02-14T02:36:36.172Z,25.16
2017-02-14T02:36:55.905Z,25.19
2017-02-14T02:37:15.077Z,25.22
2017-02-14T02:37:34.826Z,25.22
2017-02-14T02:37:54.556Z,25.22
2017-02-14T02:38:13.684Z,25.1
2017-02-14T02:38:32.882Z,25.05
2017-02-14T02:38:52.066Z,25.12
2017-02-14T02:39:11.764Z,25.08
2017-02-14T02:39:30.970Z,25.1
2017-02-14T02:39:50.719Z,25
2017-02-14T02:40:10.498Z,25.02
2017-02-14T02:40:30.264Z,25.09
2017-02-14T02:40:50.001Z,24.97
2017-02-14T02:41:09.716Z,25.04
2017-02-14T02:41:29.478Z,25.02
2017-02-14T02:41:49.201Z,25
2017-02-14T02:42:08.942Z,25.09
2017-02-14T02:42:27.459Z,25.09
2017-02-14T02:42:47.198Z,25.08
2017-02-14T02:43:06.953Z,25.08
2017-02-14T02:43:26.732Z,25.09
2017-02-14T02:43:46.493Z,25.12
2017-02-14T02:44:06.227Z,25.1
2017-02-14T02:44:39.854Z,25.08
2017-02-14T02:44:59.628Z,25.1
2017-02-14T02:45:19.357Z,25.08
2017-02-14T02:45:39.096Z,25.09
2017-02-14T02:45:58.876Z,25.12
2017-02-14T02:46:18.678Z,25.1
2017-02-14T02:46:37.826Z,25.12
2017-02-14T02:46:57.587Z,25.08
2017-02-14T02:47:17.371Z,25.16
2017-02-14T02:47:37.149Z,25.02
2017-02-14T02:47:56.854Z,25.04
2017-02-14T02:48:15.983Z,25.12
2017-02-14T02:48:35.766Z,25.08
2017-02-14T02:48:55.535Z,25.13
2017-02-14T02:49:15.280Z,25.17
2017-02-14T02:49:35.033Z,25.16
2017-02-14T02:49:54.787Z,25.16
2017-02-14T02:50:14.514Z,25.08
2017-02-14T02:50:34.333Z,25.08
2017-02-14T02:50:54.127Z,25.13
2017-02-14T02:51:13.865Z,25.19
2017-02-14T02:51:33.633Z,25.1
2017-02-14T02:51:53.438Z,25.1
2017-02-14T02:52:12.591Z,25.19
2017-02-14T02:52:31.703Z,25.1
2017-02-14T02:52:51.451Z,25.23
2017-02-14T02:53:10.597Z,25.27
2017-02-14T02:53:29.710Z,25.23
2017-02-14T02:53:48.877Z,25.2
2017-02-14T02:54:08.640Z,25.23
2017-02-14T02:54:28.372Z,25.3
2017-02-14T02:54:48.128Z,25.23
2017-02-14T02:55:07.442Z,25.12
2017-02-14T02:55:27.198Z,25.15
2017-02-14T02:55:46.969Z,25.17
2017-02-14T02:56:06.761Z,25.15
2017-02-14T02:56:26.505Z,25.19
2017-02-14T02:56:46.305Z,25.16
2017-02-14T02:57:05.972Z,25.17
2017-02-14T02:57:25.695Z,25.16
2017-02-14T02:57:45.436Z,25.12
2017-02-14T02:58:05.184Z,25.16
2017-02-14T02:58:24.352Z,25.22
2017-02-14T02:58:44.062Z,25.19
2017-02-14T02:59:03.809Z,25.12
2017-02-14T02:59:22.981Z,25.16
2017-02-14T02:59:42.710Z,25.19
2017-02-14T03:00:01.863Z,25.08
2017-02-14T03:00:21.605Z,25.22
2017-02-14T03:00:41.320Z,25.1
2017-02-14T03:01:01.082Z,25.2
2017-02-14T03:01:20.858Z,25.2
2017-02-14T03:01:40.741Z,25.17
2017-02-14T03:01:59.942Z,25.1
2017-02-14T03:02:18.477Z,25.16
2017-02-14T03:02:38.233Z,25.08
2017-02-14T03:02:57.981Z,25.2
2017-02-14T03:03:17.133Z,25.16
2017-02-14T03:03:36.913Z,25.05
2017-02-14T03:03:56.651Z,25.1
2017-02-14T03:04:15.787Z,25.05
2017-02-14T03:04:34.350Z,25.16
2017-02-14T03:04:54.129Z,25.22
2017-02-14T03:05:13.930Z,25.04
2017-02-14T03:05:33.702Z,25.1
2017-02-14T03:05:53.452Z,25.05
2017-02-14T03:06:13.206Z,25.1
2017-02-14T03:06:32.984Z,25.16
2017-02-14T03:06:52.156Z,25.17
2017-02-14T03:07:11.917Z,25.05
2017-02-14T03:07:30.494Z,25.16
2017-02-14T03:07:50.215Z,25.1
2017-02-14T03:08:09.982Z,25.22
2017-02-14T03:08:29.744Z,25.22
2017-02-14T03:08:49.501Z,25.16
2017-02-14T03:09:09.255Z,25.22
2017-02-14T03:09:28.452Z,25.19
2017-02-14T03:09:48.151Z,25.01
2017-02-14T03:10:08.089Z,25.2
2017-02-14T03:10:27.855Z,25.08
2017-02-14T03:10:47.610Z,25.15
2017-02-14T03:11:07.365Z,25.05
2017-02-14T03:11:27.087Z,25.08
2017-02-14T03:11:46.967Z,25.15
2017-02-14T03:12:06.692Z,25.12
2017-02-14T03:12:26.414Z,25.1
2017-02-14T03:12:46.191Z,25.13
2017-02-14T03:13:05.961Z,25.15
2017-02-14T03:13:25.100Z,25.19
2017-02-14T03:13:44.874Z,25.12
2017-02-14T03:14:04.595Z,25.15
2017-02-14T03:14:24.367Z,25.12
2017-02-14T03:14:44.090Z,25.15
2017-02-14T03:15:03.816Z,25.13
2017-02-14T03:15:23.590Z,25.12
2017-02-14T03:15:43.365Z,25.25
2017-02-14T03:16:03.097Z,25.22
2017-02-14T03:16:22.844Z,25.2
2017-02-14T03:16:42.557Z,25.15
2017-02-14T03:17:02.316Z,25.05
2017-02-14T03:17:22.057Z,25.05
2017-02-14T03:17:41.766Z,25.01
2017-02-14T03:18:01.543Z,25.15
2017-02-14T03:18:20.671Z,25.17
2017-02-14T03:18:40.427Z,25.1
2017-02-14T03:19:00.177Z,25.02
2017-02-14T03:19:19.937Z,25.08
2017-02-14T03:19:39.707Z,25.02
2017-02-14T03:19:58.278Z,25.09
2017-02-14T03:20:18.005Z,25.12
2017-02-14T03:20:37.787Z,25.15
2017-02-14T03:20:56.966Z,25.12
2017-02-14T03:21:16.104Z,25.1
2017-02-14T03:21:36.105Z,25.08
2017-02-14T03:21:55.883Z,25.08
2017-02-14T03:22:15.912Z,25.12
2017-02-14T03:22:35.016Z,25.1
2017-02-14T03:22:54.736Z,25.16
2017-02-14T03:23:14.464Z,25.13
2017-02-14T03:23:34.171Z,25.1
2017-02-14T03:23:53.859Z,25.08
2017-02-14T03:24:13.634Z,25.1
2017-02-14T03:24:33.372Z,25.09
2017-02-14T03:24:52.518Z,25.09
2017-02-14T03:25:12.306Z,25.02
2017-02-14T03:25:32.049Z,25.15
2017-02-14T03:25:51.796Z,25.25
2017-02-14T03:26:11.510Z,25.16
2017-02-14T03:26:31.221Z,25.05
2017-02-14T03:26:50.950Z,25.08
2017-02-14T03:27:10.712Z,25.08
2017-02-14T03:27:30.488Z,25.15
2017-02-14T03:27:49.678Z,25.19
2017-02-14T03:28:09.428Z,25.22
2017-02-14T03:28:29.185Z,25.1
2017-02-14T03:28:48.920Z,25.19
2017-02-14T03:29:08.674Z,25.22
2017-02-14T03:29:28.467Z,25.2
2017-02-14T03:29:48.206Z,25.19
2017-02-14T03:30:07.950Z,25.2
2017-02-14T03:30:27.106Z,25.13
2017-02-14T03:30:46.883Z,25.13
2017-02-14T03:31:06.646Z,25.15
2017-02-14T03:31:25.838Z,25.02
2017-02-14T03:31:45.567Z,25.08
2017-02-14T03:32:05.309Z,25.08
2017-02-14T03:32:24.467Z,25.13
2017-02-14T03:32:43.631Z,25.09
2017-02-14T03:33:03.383Z,25.09
2017-02-14T03:33:23.098Z,25.13
2017-02-14T03:33:42.857Z,25.15
2017-02-14T03:34:02.610Z,25
2017-02-14T03:34:21.749Z,25.1
2017-02-14T03:34:41.530Z,25.01
2017-02-14T03:35:01.282Z,24.95
2017-02-14T03:35:21.240Z,25.01
2017-02-14T03:35:40.388Z,25.08
2017-02-14T03:36:00.150Z,25.09
2017-02-14T03:36:19.273Z,25.04
2017-02-14T03:36:38.566Z,25.04
2017-02-14T03:36:58.295Z,24.97
2017-02-14T03:37:18.058Z,24.97
2017-02-14T03:37:37.770Z,25.01
2017-02-14T03:37:57.545Z,25.01
2017-02-14T03:38:17.323Z,25.05
2017-02-14T03:38:37.070Z,25.05
2017-02-14T03:38:56.800Z,25
2017-02-14T03:39:16.552Z,25.04
2017-02-14T03:39:36.302Z,25.04
2017-02-14T03:39:56.069Z,25.04
2017-02-14T03:40:16.065Z,25.04
2017-02-14T03:40:35.796Z,25.04
2017-02-14T03:40:55.580Z,25.02
2017-02-14T03:41:15.339Z,25
2017-02-14T03:41:35.183Z,25
2017-02-14T03:41:54.888Z,25.08
2017-02-14T03:42:14.060Z,25
2017-02-14T03:42:33.230Z,25.04
2017-02-14T03:42:53.003Z,24.97
2017-02-14T03:43:12.152Z,24.94
2017-02-14T03:43:31.895Z,25.04
2017-02-14T03:43:51.691Z,25.08
2017-02-14T03:44:10.851Z,25.02
2017-02-14T03:44:29.420Z,25.1
2017-02-14T03:44:47.988Z,24.95
2017-02-14T03:45:07.732Z,25.04
2017-02-14T03:45:26.884Z,25.09
2017-02-14T03:45:46.634Z,25.04
2017-02-14T03:46:06.378Z,25.01
2017-02-14T03:46:26.110Z,25.02
2017-02-14T03:46:45.996Z,24.98
2017-02-14T03:47:05.775Z,24.95
2017-02-14T03:47:24.917Z,25.05
2017-02-14T03:47:44.670Z,25.08
2017-02-14T03:48:04.390Z,25.08
2017-02-14T03:48:23.539Z,25.02
2017-02-14T03:48:43.364Z,24.97
2017-02-14T03:49:02.503Z,24.94
2017-02-14T03:49:22.301Z,25.02
2017-02-14T03:49:42.045Z,24.94
2017-02-14T03:50:01.785Z,25.08
2017-02-14T03:50:20.914Z,25.09
2017-02-14T03:50:40.054Z,25.01
2017-02-14T03:50:59.817Z,24.94
2017-02-14T03:51:19.570Z,24.93
2017-02-14T03:51:39.347Z,24.91
2017-02-14T03:51:59.059Z,24.88
2017-02-14T03:52:18.832Z,24.91
2017-02-14T03:52:38.539Z,24.9
2017-02-14T03:52:58.331Z,24.83
2017-02-14T03:53:17.559Z,24.83
2017-02-14T03:53:37.348Z,24.82
2017-02-14T03:53:57.125Z,24.82
2017-02-14T03:54:16.312Z,24.86
2017-02-14T03:54:35.472Z,24.93
2017-02-14T03:54:55.207Z,24.98
2017-02-14T03:55:15.163Z,24.93
2017-02-14T03:55:34.918Z,24.98
2017-02-14T03:55:54.629Z,25
2017-02-14T03:56:13.765Z,25.01
2017-02-14T03:56:33.594Z,24.97
2017-02-14T03:56:53.372Z,24.94
2017-02-14T03:57:13.114Z,24.97
2017-02-14T03:57:32.864Z,25.05
2017-02-14T03:57:52.614Z,25
2017-02-14T03:58:12.355Z,25.05
2017-02-14T03:58:32.070Z,25.04
2017-02-14T03:58:51.858Z,25.04
2017-02-14T03:59:10.973Z,25.1
2017-02-14T03:59:30.729Z,25.04
2017-02-14T03:59:50.494Z,25.02
2017-02-14T04:00:10.228Z,25.04
2017-02-14T04:00:29.398Z,25.02
2017-02-14T04:00:49.120Z,24.95
2017-02-14T04:01:08.876Z,24.98
2017-02-14T04:01:27.450Z,24.97
2017-02-14T04:01:47.199Z,24.94
2017-02-14T04:02:06.935Z,24.97
2017-02-14T04:02:26.656Z,24.95
2017-02-14T04:02:46.451Z,25.05
2017-02-14T04:03:06.179Z,24.95
2017-02-14T04:03:25.936Z,24.95
2017-02-14T04:03:45.729Z,24.97
2017-02-14T04:04:05.472Z,24.86
2017-02-14T04:04:25.287Z,24.91
2017-02-14T04:04:45.038Z,24.9
2017-02-14T04:05:04.799Z,24.85
2017-02-14T04:05:23.929Z,24.86
2017-02-14T04:05:43.677Z,24.83
2017-02-14T04:06:03.433Z,24.93
2017-02-14T04:06:23.190Z,24.97
2017-02-14T04:06:43.015Z,25.02
2017-02-14T04:07:02.763Z,25.02
2017-02-14T04:07:22.507Z,25.01
2017-02-14T04:07:42.258Z,25
2017-02-14T04:08:02.019Z,24.88
2017-02-14T04:08:21.757Z,24.91
2017-02-14T04:08:41.507Z,24.9
2017-02-14T04:09:01.331Z,24.91
2017-02-14T04:09:21.078Z,24.98
2017-02-14T04:09:40.791Z,24.93
2017-02-14T04:10:00.480Z,25.02
2017-02-14T04:10:20.212Z,24.97
2017-02-14T04:10:39.957Z,24.88
2017-02-14T04:10:59.707Z,25.04
2017-02-14T04:11:18.890Z,24.91
2017-02-14T04:11:38.079Z,25.05
2017-02-14T04:11:57.852Z,25.01
2017-02-14T04:12:17.652Z,24.86
2017-02-14T04:12:37.476Z,24.93
2017-02-14T04:12:57.250Z,24.98
2017-02-14T04:13:17.038Z,24.93
2017-02-14T04:13:36.769Z,24.93
2017-02-14T04:13:56.499Z,24.9
2017-02-14T04:14:16.288Z,24.91
2017-02-14T04:14:35.491Z,25